sensor_id;sensor_type;location;lat;lon;timestamp;pressure;altitude;pressure_sealevel;temperature;humidity
33422;BME280;19763;55.798;37.782;2022-08-16T00:01:18;100213.47;;;22.18;57.70
33422;BME280;19763;55.798;37.782;2022-08-16T00:03:44;100218.75;;;22.18;58.80
33422;BME280;19763;55.798;37.782;2022-08-16T00:06:11;100225.72;;;22.19;57.61
33422;BME280;19763;55.798;37.782;2022-08-16T00:08:37;100227.03;;;22.27;58.06
33422;BME280;19763;55.798;37.782;2022-08-16T00:11:09;100184.84;;;21.98;57.98
33422;BME280;19763;55.798;37.782;2022-08-16T00:13:35;100223.47;;;22.28;57.43
33422;BME280;19763;55.798;37.782;2022-08-16T00:16:01;100213.47;;;22.18;57.45
33422;BME280;19763;55.798;37.782;2022-08-16T00:18:26;100224.22;;;22.01;57.93
33422;BME280;19763;55.798;37.782;2022-08-16T00:20:52;100224.03;;;22.18;57.62
33422;BME280;19763;55.798;37.782;2022-08-16T00:23:18;100235.41;;;22.19;57.51
33422;BME280;19763;55.798;37.782;2022-08-16T00:25:43;100228.56;;;22.16;57.39
33422;BME280;19763;55.798;37.782;2022-08-16T00:28:10;100234.28;;;22.09;57.63
33422;BME280;19763;55.798;37.782;2022-08-16T00:30:36;100219.22;;;21.96;57.62
33422;BME280;19763;55.798;37.782;2022-08-16T00:33:02;100226.56;;;22.05;57.79
33422;BME280;19763;55.798;37.782;2022-08-16T00:35:32;100194.31;;;21.86;57.90
33422;BME280;19763;55.798;37.782;2022-08-16T00:37:58;100222.72;;;22.11;58.40
33422;BME280;19763;55.798;37.782;2022-08-16T00:40:36;100170.97;;;21.80;58.50
33422;BME280;19763;55.798;37.782;2022-08-16T00:43:13;100206.28;;;22.06;59.04
33422;BME280;19763;55.798;37.782;2022-08-16T00:48:23;100211.75;;;22.03;58.80
33422;BME280;19763;55.798;37.782;2022-08-16T00:50:49;100221.38;;;22.04;58.77
33422;BME280;19763;55.798;37.782;2022-08-16T00:53:16;100222.41;;;22.01;58.75
33422;BME280;19763;55.798;37.782;2022-08-16T00:55:46;100235.69;;;22.00;58.96
33422;BME280;19763;55.798;37.782;2022-08-16T00:58:14;100223.81;;;21.93;59.25
33422;BME280;19763;55.798;37.782;2022-08-16T01:00:41;100225.53;;;21.94;58.70
33422;BME280;19763;55.798;37.782;2022-08-16T01:03:10;100179.88;;;21.63;58.81
33422;BME280;19763;55.798;37.782;2022-08-16T01:05:37;100228.34;;;21.91;59.12
33422;BME280;19763;55.798;37.782;2022-08-16T01:08:05;100220.38;;;21.76;58.94
33422;BME280;19763;55.798;37.782;2022-08-16T01:10:32;100252.34;;;21.86;59.17
33422;BME280;19763;55.798;37.782;2022-08-16T01:13:02;100245.47;;;21.83;59.42
33422;BME280;19763;55.798;37.782;2022-08-16T01:15:29;100218.81;;;21.74;59.92
33422;BME280;19763;55.798;37.782;2022-08-16T01:17:56;100241.47;;;21.76;59.85
33422;BME280;19763;55.798;37.782;2022-08-16T01:20:24;100205.94;;;21.53;59.76
33422;BME280;19763;55.798;37.782;2022-08-16T01:23:13;100195.66;;;21.48;60.11
33422;BME280;19763;55.798;37.782;2022-08-16T01:25:45;100253.00;;;21.75;60.05
33422;BME280;19763;55.798;37.782;2022-08-16T01:28:15;100203.84;;;21.44;59.96
33422;BME280;19763;55.798;37.782;2022-08-16T01:30:46;100258.78;;;21.66;59.08
33422;BME280;19763;55.798;37.782;2022-08-16T01:33:13;100253.13;;;21.58;59.19
33422;BME280;19763;55.798;37.782;2022-08-16T01:35:46;100260.09;;;21.59;59.32
33422;BME280;19763;55.798;37.782;2022-08-16T01:38:35;100260.97;;;21.59;59.78
33422;BME280;19763;55.798;37.782;2022-08-16T01:41:05;100209.16;;;21.28;59.25
33422;BME280;19763;55.798;37.782;2022-08-16T01:43:31;100256.81;;;21.55;59.14
33422;BME280;19763;55.798;37.782;2022-08-16T01:46:00;100218.41;;;21.35;58.86
33422;BME280;19763;55.798;37.782;2022-08-16T01:48:29;100265.38;;;21.43;59.37
33422;BME280;19763;55.798;37.782;2022-08-16T01:50:56;100256.16;;;21.19;59.80
33422;BME280;19763;55.798;37.782;2022-08-16T01:53:22;100257.66;;;21.08;60.36
33422;BME280;19763;55.798;37.782;2022-08-16T01:55:49;100256.66;;;20.94;60.93
33422;BME280;19763;55.798;37.782;2022-08-16T01:58:15;100236.34;;;20.80;60.94
33422;BME280;19763;55.798;37.782;2022-08-16T02:00:42;100250.97;;;21.02;60.80
33422;BME280;19763;55.798;37.782;2022-08-16T02:03:08;100251.50;;;20.93;60.91
33422;BME280;19763;55.798;37.782;2022-08-16T02:05:34;100247.84;;;20.79;61.06
33422;BME280;19763;55.798;37.782;2022-08-16T02:08:01;100254.78;;;20.80;61.28
33422;BME280;19763;55.798;37.782;2022-08-16T02:10:27;100251.66;;;20.74;61.55
33422;BME280;19763;55.798;37.782;2022-08-16T02:12:53;100249.97;;;20.73;61.25
33422;BME280;19763;55.798;37.782;2022-08-16T02:15:22;100253.59;;;20.70;61.65
33422;BME280;19763;55.798;37.782;2022-08-16T02:17:48;100256.94;;;20.74;61.50
33422;BME280;19763;55.798;37.782;2022-08-16T02:20:15;100240.53;;;20.68;61.36
33422;BME280;19763;55.798;37.782;2022-08-16T02:22:41;100248.00;;;20.76;61.54
33422;BME280;19763;55.798;37.782;2022-08-16T02:25:11;100235.00;;;20.73;61.48
33422;BME280;19763;55.798;37.782;2022-08-16T02:27:42;100252.59;;;20.73;61.85
33422;BME280;19763;55.798;37.782;2022-08-16T02:30:12;100256.31;;;20.84;61.23
33422;BME280;19763;55.798;37.782;2022-08-16T02:32:42;100249.13;;;20.88;61.34
33422;BME280;19763;55.798;37.782;2022-08-16T02:35:09;100255.97;;;20.91;61.12
33422;BME280;19763;55.798;37.782;2022-08-16T02:37:35;100246.41;;;20.90;61.31
33422;BME280;19763;55.798;37.782;2022-08-16T02:40:00;100251.84;;;20.86;61.40
33422;BME280;19763;55.798;37.782;2022-08-16T02:42:26;100249.34;;;20.83;61.94
33422;BME280;19763;55.798;37.782;2022-08-16T02:44:52;100260.84;;;20.82;61.85
33422;BME280;19763;55.798;37.782;2022-08-16T02:47:17;100253.34;;;20.75;61.87
33422;BME280;19763;55.798;37.782;2022-08-16T02:49:43;100261.50;;;20.70;62.20
33422;BME280;19763;55.798;37.782;2022-08-16T02:52:10;100250.97;;;20.70;61.86
33422;BME280;19763;55.798;37.782;2022-08-16T02:54:36;100263.13;;;20.73;62.16
33422;BME280;19763;55.798;37.782;2022-08-16T02:57:02;100256.84;;;20.91;61.58
33422;BME280;19763;55.798;37.782;2022-08-16T02:59:28;100265.16;;;20.83;61.66
33422;BME280;19763;55.798;37.782;2022-08-16T03:01:54;100268.00;;;20.63;62.24
33422;BME280;19763;55.798;37.782;2022-08-16T03:04:21;100226.53;;;20.34;61.70
33422;BME280;19763;55.798;37.782;2022-08-16T03:06:48;100280.38;;;20.78;61.73
33422;BME280;19763;55.798;37.782;2022-08-16T03:09:13;100268.66;;;20.84;61.67
33422;BME280;19763;55.798;37.782;2022-08-16T03:11:39;100272.72;;;20.74;62.04
33422;BME280;19763;55.798;37.782;2022-08-16T03:14:05;100279.59;;;20.76;61.92
33422;BME280;19763;55.798;37.782;2022-08-16T03:16:31;100273.19;;;20.64;62.18
33422;BME280;19763;55.798;37.782;2022-08-16T03:18:57;100272.47;;;20.78;62.02
33422;BME280;19763;55.798;37.782;2022-08-16T03:21:22;100274.84;;;20.83;61.89
33422;BME280;19763;55.798;37.782;2022-08-16T03:23:48;100273.56;;;20.90;61.85
33422;BME280;19763;55.798;37.782;2022-08-16T03:26:14;100272.47;;;20.78;62.07
33422;BME280;19763;55.798;37.782;2022-08-16T03:28:40;100286.22;;;20.83;61.85
33422;BME280;19763;55.798;37.782;2022-08-16T03:31:06;100282.41;;;21.05;61.33
33422;BME280;19763;55.798;37.782;2022-08-16T03:33:33;100280.81;;;20.86;61.68
33422;BME280;19763;55.798;37.782;2022-08-16T03:35:59;100279.69;;;20.91;61.53
33422;BME280;19763;55.798;37.782;2022-08-16T03:38:27;100263.47;;;20.82;61.66
33422;BME280;19763;55.798;37.782;2022-08-16T03:40:54;100281.56;;;21.04;61.47
33422;BME280;19763;55.798;37.782;2022-08-16T03:43:21;100287.84;;;21.02;61.68
33422;BME280;19763;55.798;37.782;2022-08-16T03:45:53;100240.34;;;20.72;61.54
33422;BME280;19763;55.798;37.782;2022-08-16T03:48:24;100235.88;;;20.74;61.50
33422;BME280;19763;55.798;37.782;2022-08-16T03:50:50;100278.25;;;21.01;61.74
33422;BME280;19763;55.798;37.782;2022-08-16T03:53:16;100278.69;;;21.09;61.09
33422;BME280;19763;55.798;37.782;2022-08-16T03:55:42;100283.59;;;21.15;60.65
33422;BME280;19763;55.798;37.782;2022-08-16T03:58:07;100282.75;;;21.31;60.78
33422;BME280;19763;55.798;37.782;2022-08-16T04:00:33;100282.19;;;21.40;60.87
33422;BME280;19763;55.798;37.782;2022-08-16T04:03:00;100232.94;;;21.10;60.43
33422;BME280;19763;55.798;37.782;2022-08-16T04:05:36;100277.97;;;21.21;60.59
33422;BME280;19763;55.798;37.782;2022-08-16T04:08:03;100284.13;;;21.22;60.98
33422;BME280;19763;55.798;37.782;2022-08-16T04:10:28;100282.53;;;21.50;60.34
33422;BME280;19763;55.798;37.782;2022-08-16T04:12:56;100280.38;;;21.10;61.04
33422;BME280;19763;55.798;37.782;2022-08-16T04:15:23;100282.72;;;21.47;60.38
33422;BME280;19763;55.798;37.782;2022-08-16T04:17:50;100277.44;;;21.47;60.44
33422;BME280;19763;55.798;37.782;2022-08-16T04:20:16;100274.97;;;21.60;60.22
33422;BME280;19763;55.798;37.782;2022-08-16T04:22:42;100274.44;;;21.69;59.53
33422;BME280;19763;55.798;37.782;2022-08-16T04:25:09;100287.31;;;21.89;59.64
33422;BME280;19763;55.798;37.782;2022-08-16T04:27:38;100275.81;;;21.91;59.64
33422;BME280;19763;55.798;37.782;2022-08-16T04:30:09;100279.31;;;21.91;59.57
33422;BME280;19763;55.798;37.782;2022-08-16T04:32:36;100273.94;;;21.93;59.12
33422;BME280;19763;55.798;37.782;2022-08-16T04:35:04;100277.63;;;22.04;59.31
33422;BME280;19763;55.798;37.782;2022-08-16T04:37:29;100283.84;;;22.03;59.25
33422;BME280;19763;55.798;37.782;2022-08-16T04:39:55;100289.94;;;21.89;59.53
33422;BME280;19763;55.798;37.782;2022-08-16T04:42:21;100285.19;;;22.11;58.84
33422;BME280;19763;55.798;37.782;2022-08-16T04:44:46;100281.59;;;22.12;58.90
33422;BME280;19763;55.798;37.782;2022-08-16T04:47:12;100287.94;;;22.23;59.03
33422;BME280;19763;55.798;37.782;2022-08-16T04:49:38;100292.56;;;22.34;58.08
33422;BME280;19763;55.798;37.782;2022-08-16T04:52:04;100288.44;;;22.45;58.11
33422;BME280;19763;55.798;37.782;2022-08-16T04:54:29;100294.28;;;22.35;58.50
33422;BME280;19763;55.798;37.782;2022-08-16T04:56:55;100285.91;;;22.57;57.89
33422;BME280;19763;55.798;37.782;2022-08-16T04:59:21;100295.69;;;22.55;57.04
33422;BME280;19763;55.798;37.782;2022-08-16T05:01:46;100289.47;;;22.71;57.55
33422;BME280;19763;55.798;37.782;2022-08-16T05:04:12;100288.59;;;22.85;57.63
33422;BME280;19763;55.798;37.782;2022-08-16T05:06:38;100290.75;;;22.92;57.52
33422;BME280;19763;55.798;37.782;2022-08-16T05:09:03;100297.53;;;23.11;56.66
33422;BME280;19763;55.798;37.782;2022-08-16T05:11:29;100287.69;;;23.27;56.01
33422;BME280;19763;55.798;37.782;2022-08-16T05:13:56;100281.34;;;23.57;55.12
33422;BME280;19763;55.798;37.782;2022-08-16T05:16:27;100283.28;;;23.81;55.03
33422;BME280;19763;55.798;37.782;2022-08-16T05:18:55;100242.34;;;23.34;53.51
33422;BME280;19763;55.798;37.782;2022-08-16T05:21:21;100247.19;;;23.67;53.36
33422;BME280;19763;55.798;37.782;2022-08-16T05:23:48;100274.75;;;24.03;53.18
33422;BME280;19763;55.798;37.782;2022-08-16T05:26:14;100281.94;;;24.14;53.22
33422;BME280;19763;55.798;37.782;2022-08-16T05:28:40;100288.72;;;24.05;52.62
33422;BME280;19763;55.798;37.782;2022-08-16T05:31:05;100284.72;;;24.12;53.37
33422;BME280;19763;55.798;37.782;2022-08-16T05:33:31;100283.88;;;23.99;53.16
33422;BME280;19763;55.798;37.782;2022-08-16T05:35:56;100282.81;;;24.27;52.63
33422;BME280;19763;55.798;37.782;2022-08-16T05:38:22;100283.25;;;24.47;52.02
33422;BME280;19763;55.798;37.782;2022-08-16T05:40:55;100280.06;;;24.42;52.50
33422;BME280;19763;55.798;37.782;2022-08-16T05:43:22;100282.69;;;24.55;52.53
33422;BME280;19763;55.798;37.782;2022-08-16T05:45:48;100292.75;;;24.50;52.74
33422;BME280;19763;55.798;37.782;2022-08-16T05:48:15;100283.63;;;24.54;52.30
33422;BME280;19763;55.798;37.782;2022-08-16T05:50:40;100285.00;;;24.59;52.20
33422;BME280;19763;55.798;37.782;2022-08-16T05:53:06;100280.78;;;24.70;52.41
33422;BME280;19763;55.798;37.782;2022-08-16T05:55:32;100281.22;;;24.63;52.19
33422;BME280;19763;55.798;37.782;2022-08-16T05:57:57;100292.00;;;24.73;51.41
33422;BME280;19763;55.798;37.782;2022-08-16T06:00:23;100281.06;;;24.78;51.17
33422;BME280;19763;55.798;37.782;2022-08-16T06:02:50;100284.63;;;24.66;49.95
33422;BME280;19763;55.798;37.782;2022-08-16T06:05:16;100283.53;;;24.68;49.90
33422;BME280;19763;55.798;37.782;2022-08-16T06:07:42;100292.09;;;24.85;50.42
33422;BME280;19763;55.798;37.782;2022-08-16T06:10:08;100281.06;;;24.78;49.94
33422;BME280;19763;55.798;37.782;2022-08-16T06:12:34;100278.66;;;24.75;50.38
33422;BME280;19763;55.798;37.782;2022-08-16T06:15:03;100250.69;;;24.71;50.07
33422;BME280;19763;55.798;37.782;2022-08-16T06:17:29;100287.16;;;25.04;50.23
33422;BME280;19763;55.798;37.782;2022-08-16T06:19:55;100280.94;;;25.16;50.02
33422;BME280;19763;55.798;37.782;2022-08-16T06:22:20;100283.06;;;25.24;49.90
33422;BME280;19763;55.798;37.782;2022-08-16T06:24:46;100286.53;;;25.25;48.52
33422;BME280;19763;55.798;37.782;2022-08-16T06:27:12;100278.34;;;25.04;48.74
33422;BME280;19763;55.798;37.782;2022-08-16T06:29:38;100290.03;;;25.25;48.22
33422;BME280;19763;55.798;37.782;2022-08-16T06:32:04;100283.72;;;25.15;48.00
33422;BME280;19763;55.798;37.782;2022-08-16T06:34:30;100283.44;;;25.31;48.61
33422;BME280;19763;55.798;37.782;2022-08-16T06:36:55;100284.22;;;25.20;48.35
33422;BME280;19763;55.798;37.782;2022-08-16T06:39:21;100285.78;;;25.36;47.73
33422;BME280;19763;55.798;37.782;2022-08-16T06:41:47;100282.59;;;25.30;48.19
33422;BME280;19763;55.798;37.782;2022-08-16T06:44:13;100288.50;;;25.47;48.50
33422;BME280;19763;55.798;37.782;2022-08-16T06:46:39;100285.91;;;25.58;47.65
33422;BME280;19763;55.798;37.782;2022-08-16T06:49:07;100241.31;;;25.39;47.41
33422;BME280;19763;55.798;37.782;2022-08-16T06:51:34;100281.22;;;25.73;47.15
33422;BME280;19763;55.798;37.782;2022-08-16T06:54:02;100276.56;;;25.88;47.58
33422;BME280;19763;55.798;37.782;2022-08-16T06:56:27;100280.06;;;25.89;48.25
33422;BME280;19763;55.798;37.782;2022-08-16T06:58:54;100263.31;;;25.99;48.03
33422;BME280;19763;55.798;37.782;2022-08-16T07:01:20;100280.34;;;25.97;46.07
33422;BME280;19763;55.798;37.782;2022-08-16T07:03:46;100268.19;;;26.06;46.51
33422;BME280;19763;55.798;37.782;2022-08-16T07:06:13;100280.66;;;25.92;44.98
33422;BME280;19763;55.798;37.782;2022-08-16T07:08:39;100271.78;;;26.05;44.95
33422;BME280;19763;55.798;37.782;2022-08-16T07:11:07;100272.53;;;26.18;46.05
33422;BME280;19763;55.798;37.782;2022-08-16T07:13:34;100254.19;;;26.26;44.99
33422;BME280;19763;55.798;37.782;2022-08-16T07:16:01;100263.88;;;26.39;44.33
33422;BME280;19763;55.798;37.782;2022-08-16T07:18:27;100270.00;;;26.50;44.32
33422;BME280;19763;55.798;37.782;2022-08-16T07:20:53;100262.41;;;26.57;44.44
33422;BME280;19763;55.798;37.782;2022-08-16T07:23:22;100257.81;;;26.59;43.21
33422;BME280;19763;55.798;37.782;2022-08-16T07:25:47;100269.03;;;26.63;42.79
33422;BME280;19763;55.798;37.782;2022-08-16T07:28:15;100223.53;;;26.33;42.42
33422;BME280;19763;55.798;37.782;2022-08-16T07:30:42;100263.50;;;26.77;42.62
33422;BME280;19763;55.798;37.782;2022-08-16T07:33:08;100266.66;;;26.82;41.71
33422;BME280;19763;55.798;37.782;2022-08-16T07:35:35;100268.94;;;26.87;41.73
33422;BME280;19763;55.798;37.782;2022-08-16T07:38:01;100267.97;;;26.77;42.41
33422;BME280;19763;55.798;37.782;2022-08-16T07:40:27;100256.59;;;26.86;42.54
33422;BME280;19763;55.798;37.782;2022-08-16T07:42:53;100275.53;;;27.04;42.20
33422;BME280;19763;55.798;37.782;2022-08-16T07:45:19;100270.59;;;26.99;41.83
33422;BME280;19763;55.798;37.782;2022-08-16T07:47:45;100278.78;;;27.08;41.25
33422;BME280;19763;55.798;37.782;2022-08-16T07:50:12;100270.56;;;27.11;42.35
33422;BME280;19763;55.798;37.782;2022-08-16T07:52:39;100276.84;;;27.10;42.80
33422;BME280;19763;55.798;37.782;2022-08-16T07:55:07;100273.16;;;27.22;41.62
33422;BME280;19763;55.798;37.782;2022-08-16T07:57:32;100273.38;;;27.30;41.58
33422;BME280;19763;55.798;37.782;2022-08-16T07:59:58;100272.69;;;27.28;41.89
33422;BME280;19763;55.798;37.782;2022-08-16T08:02:26;100270.28;;;27.36;41.52
33422;BME280;19763;55.798;37.782;2022-08-16T08:04:51;100260.78;;;27.11;41.09
33422;BME280;19763;55.798;37.782;2022-08-16T08:07:17;100268.81;;;27.32;42.00
33422;BME280;19763;55.798;37.782;2022-08-16T08:09:43;100269.16;;;27.28;40.98
33422;BME280;19763;55.798;37.782;2022-08-16T08:12:08;100263.00;;;27.38;41.29
33422;BME280;19763;55.798;37.782;2022-08-16T08:14:34;100258.84;;;27.46;41.34
33422;BME280;19763;55.798;37.782;2022-08-16T08:17:01;100265.94;;;27.57;41.32
33422;BME280;19763;55.798;37.782;2022-08-16T08:19:29;100258.66;;;27.59;41.46
33422;BME280;19763;55.798;37.782;2022-08-16T08:21:54;100252.31;;;27.71;41.56
33422;BME280;19763;55.798;37.782;2022-08-16T08:24:21;100217.00;;;27.48;41.07
33422;BME280;19763;55.798;37.782;2022-08-16T08:26:47;100260.16;;;27.51;40.61
33422;BME280;19763;55.798;37.782;2022-08-16T08:29:12;100256.47;;;27.64;40.93
33422;BME280;19763;55.798;37.782;2022-08-16T08:31:38;100255.13;;;27.69;40.45
33422;BME280;19763;55.798;37.782;2022-08-16T08:34:06;100242.63;;;27.70;41.09
33422;BME280;19763;55.798;37.782;2022-08-16T08:36:33;100246.84;;;27.94;41.16
33422;BME280;19763;55.798;37.782;2022-08-16T08:39:02;100210.16;;;27.76;41.33
33422;BME280;19763;55.798;37.782;2022-08-16T08:41:28;100256.78;;;28.13;41.10
33422;BME280;19763;55.798;37.782;2022-08-16T08:43:55;100244.50;;;28.21;41.33
33422;BME280;19763;55.798;37.782;2022-08-16T08:46:22;100240.19;;;27.99;40.11
33422;BME280;19763;55.798;37.782;2022-08-16T08:48:49;100252.28;;;28.03;40.33
33422;BME280;19763;55.798;37.782;2022-08-16T08:51:16;100249.72;;;27.60;40.93
33422;BME280;19763;55.798;37.782;2022-08-16T08:53:44;100240.81;;;27.92;41.13
33422;BME280;19763;55.798;37.782;2022-08-16T08:56:11;100241.78;;;28.12;40.53
33422;BME280;19763;55.798;37.782;2022-08-16T08:58:38;100243.81;;;27.98;39.94
33422;BME280;19763;55.798;37.782;2022-08-16T09:01:05;100237.28;;;28.33;40.28
33422;BME280;19763;55.798;37.782;2022-08-16T09:03:35;100239.28;;;28.51;40.54
33422;BME280;19763;55.798;37.782;2022-08-16T09:06:03;100236.06;;;28.57;39.98
33422;BME280;19763;55.798;37.782;2022-08-16T09:08:29;100242.47;;;28.45;40.13
33422;BME280;19763;55.798;37.782;2022-08-16T09:10:57;100249.22;;;28.49;39.70
33422;BME280;19763;55.798;37.782;2022-08-16T09:13:24;100243.16;;;28.68;40.17
33422;BME280;19763;55.798;37.782;2022-08-16T09:15:51;100231.97;;;28.53;39.00
33422;BME280;19763;55.798;37.782;2022-08-16T09:18:17;100234.06;;;28.39;40.02
33422;BME280;19763;55.798;37.782;2022-08-16T09:20:44;100241.59;;;28.65;38.42
33422;BME280;19763;55.798;37.782;2022-08-16T09:23:11;100238.38;;;28.71;38.89
33422;BME280;19763;55.798;37.782;2022-08-16T09:25:37;100236.44;;;28.73;38.93
33422;BME280;19763;55.798;37.782;2022-08-16T09:28:04;100227.78;;;28.60;39.71
33422;BME280;19763;55.798;37.782;2022-08-16T09:30:30;100229.84;;;28.78;39.30
33422;BME280;19763;55.798;37.782;2022-08-16T09:32:58;100241.91;;;28.72;39.30
33422;BME280;19763;55.798;37.782;2022-08-16T09:35:24;100237.09;;;28.25;39.91
33422;BME280;19763;55.798;37.782;2022-08-16T09:37:52;100234.88;;;28.40;40.09
33422;BME280;19763;55.798;37.782;2022-08-16T09:40:18;100231.94;;;28.33;39.27
33422;BME280;19763;55.798;37.782;2022-08-16T09:42:43;100230.84;;;28.46;38.81
33422;BME280;19763;55.798;37.782;2022-08-16T09:45:10;100227.75;;;28.50;39.20
33422;BME280;19763;55.798;37.782;2022-08-16T09:47:36;100227.75;;;28.40;39.80
33422;BME280;19763;55.798;37.782;2022-08-16T09:50:08;100187.47;;;28.34;39.11
33422;BME280;19763;55.798;37.782;2022-08-16T09:52:34;100230.38;;;28.71;39.74
33422;BME280;19763;55.798;37.782;2022-08-16T09:55:07;100227.44;;;28.84;39.43
33422;BME280;19763;55.798;37.782;2022-08-16T09:57:35;100223.38;;;28.90;38.95
33422;BME280;19763;55.798;37.782;2022-08-16T10:00:04;100222.22;;;28.63;38.44
33422;BME280;19763;55.798;37.782;2022-08-16T10:02:31;100223.97;;;28.84;38.65
33422;BME280;19763;55.798;37.782;2022-08-16T10:04:57;100228.75;;;29.00;38.53
33422;BME280;19763;55.798;37.782;2022-08-16T10:07:27;100223.69;;;28.87;38.51
33422;BME280;19763;55.798;37.782;2022-08-16T10:09:53;100213.00;;;28.77;37.91
33422;BME280;19763;55.798;37.782;2022-08-16T10:12:19;100214.13;;;28.94;38.63
33422;BME280;19763;55.798;37.782;2022-08-16T10:15:03;100214.81;;;28.77;39.33
33422;BME280;19763;55.798;37.782;2022-08-16T10:17:31;100219.63;;;28.42;39.33
33422;BME280;19763;55.798;37.782;2022-08-16T10:19:57;100216.38;;;28.38;39.08
33422;BME280;19763;55.798;37.782;2022-08-16T10:22:22;100222.31;;;28.52;38.80
33422;BME280;19763;55.798;37.782;2022-08-16T10:24:48;100218.81;;;28.61;38.79
33422;BME280;19763;55.798;37.782;2022-08-16T10:27:14;100205.06;;;28.46;38.41
33422;BME280;19763;55.798;37.782;2022-08-16T10:29:39;100209.63;;;28.75;39.10
33422;BME280;19763;55.798;37.782;2022-08-16T10:32:05;100215.69;;;28.87;38.86
33422;BME280;19763;55.798;37.782;2022-08-16T10:34:31;100203.47;;;28.84;39.57
33422;BME280;19763;55.798;37.782;2022-08-16T10:36:57;100214.09;;;28.65;38.23
33422;BME280;19763;55.798;37.782;2022-08-16T10:39:23;100210.88;;;28.71;39.12
33422;BME280;19763;55.798;37.782;2022-08-16T10:42:08;100207.97;;;29.03;38.60
33422;BME280;19763;55.798;37.782;2022-08-16T10:44:34;100202.91;;;29.10;38.21
33422;BME280;19763;55.798;37.782;2022-08-16T10:46:59;100209.88;;;28.62;37.67
33422;BME280;19763;55.798;37.782;2022-08-16T10:49:25;100199.81;;;28.95;37.85
33422;BME280;19763;55.798;37.782;2022-08-16T10:51:51;100204.03;;;28.98;38.29
33422;BME280;19763;55.798;37.782;2022-08-16T10:54:20;100208.81;;;28.94;38.34
33422;BME280;19763;55.798;37.782;2022-08-16T10:56:47;100207.66;;;28.77;37.83
33422;BME280;19763;55.798;37.782;2022-08-16T10:59:13;100208.38;;;28.79;37.49
33422;BME280;19763;55.798;37.782;2022-08-16T11:01:57;100206.44;;;28.50;38.57
33422;BME280;19763;55.798;37.782;2022-08-16T11:04:23;100194.09;;;28.39;37.96
33422;BME280;19763;55.798;37.782;2022-08-16T11:06:51;100197.50;;;28.61;37.81
33422;BME280;19763;55.798;37.782;2022-08-16T11:09:16;100200.06;;;28.63;38.26
33422;BME280;19763;55.798;37.782;2022-08-16T11:11:42;100199.59;;;28.48;38.54
33422;BME280;19763;55.798;37.782;2022-08-16T11:14:08;100195.59;;;28.32;38.85
33422;BME280;19763;55.798;37.782;2022-08-16T11:16:34;100197.69;;;28.29;38.96
33422;BME280;19763;55.798;37.782;2022-08-16T11:19:00;100198.31;;;28.11;39.04
33422;BME280;19763;55.798;37.782;2022-08-16T11:21:25;100196.13;;;28.26;39.26
33422;BME280;19763;55.798;37.782;2022-08-16T11:23:51;100177.59;;;28.15;39.16
33422;BME280;19763;55.798;37.782;2022-08-16T11:26:18;100176.38;;;28.29;38.98
33422;BME280;19763;55.798;37.782;2022-08-16T11:28:44;100186.50;;;28.45;38.46
33422;BME280;19763;55.798;37.782;2022-08-16T11:31:10;100185.16;;;28.60;38.82
33422;BME280;19763;55.798;37.782;2022-08-16T11:33:35;100190.22;;;28.63;39.77
33422;BME280;19763;55.798;37.782;2022-08-16T11:36:02;100187.44;;;28.65;38.73
33422;BME280;19763;55.798;37.782;2022-08-16T11:38:28;100182.69;;;28.28;38.08
33422;BME280;19763;55.798;37.782;2022-08-16T11:40:57;100183.47;;;28.49;37.77
33422;BME280;19763;55.798;37.782;2022-08-16T11:43:27;100139.09;;;28.38;38.01
33422;BME280;19763;55.798;37.782;2022-08-16T11:45:55;100171.47;;;28.65;37.44
33422;BME280;19763;55.798;37.782;2022-08-16T11:48:30;100180.00;;;28.68;38.16
33422;BME280;19763;55.798;37.782;2022-08-16T11:51:00;100158.53;;;28.70;37.31
33422;BME280;19763;55.798;37.782;2022-08-16T11:53:27;100166.84;;;28.77;37.26
33422;BME280;19763;55.798;37.782;2022-08-16T11:55:55;100169.78;;;28.73;36.61
33422;BME280;19763;55.798;37.782;2022-08-16T11:58:39;100165.28;;;28.84;37.29
33422;BME280;19763;55.798;37.782;2022-08-16T12:01:05;100167.81;;;28.85;37.19
33422;BME280;19763;55.798;37.782;2022-08-16T12:03:31;100152.09;;;28.72;39.26
33422;BME280;19763;55.798;37.782;2022-08-16T12:05:59;100114.03;;;28.61;37.34
33422;BME280;19763;55.798;37.782;2022-08-16T12:08:27;100155.75;;;28.81;37.67
33422;BME280;19763;55.798;37.782;2022-08-16T12:10:53;100140.19;;;28.96;38.46
33422;BME280;19763;55.798;37.782;2022-08-16T12:13:19;100147.47;;;28.84;37.05
33422;BME280;19763;55.798;37.782;2022-08-16T12:15:45;100145.38;;;28.98;37.18
33422;BME280;19763;55.798;37.782;2022-08-16T12:18:11;100140.03;;;28.88;36.63
33422;BME280;19763;55.798;37.782;2022-08-16T12:20:40;100144.25;;;28.90;36.72
33422;BME280;19763;55.798;37.782;2022-08-16T12:23:06;100144.50;;;28.87;38.25
33422;BME280;19763;55.798;37.782;2022-08-16T12:25:32;100142.00;;;28.96;36.89
33422;BME280;19763;55.798;37.782;2022-08-16T12:27:59;100137.91;;;28.91;38.64
33422;BME280;19763;55.798;37.782;2022-08-16T12:30:28;100109.88;;;28.78;38.05
33422;BME280;19763;55.798;37.782;2022-08-16T12:32:56;100118.97;;;28.65;37.17
33422;BME280;19763;55.798;37.782;2022-08-16T12:35:23;100134.13;;;28.94;37.55
33422;BME280;19763;55.798;37.782;2022-08-16T12:37:50;100136.25;;;28.81;36.88
33422;BME280;19763;55.798;37.782;2022-08-16T12:40:20;100139.59;;;28.83;36.88
33422;BME280;19763;55.798;37.782;2022-08-16T12:42:47;100133.84;;;28.87;37.80